Terminal Aerodrome Forecast
Issued by NWS

Home | Current Version | Previous Version | Text Only | Print | Product List | Glossary On
Versions: 1 2 3 4 5 6 7 8 9 10 11
000
FTUS46 KMTR 121123
TAFSJC
TAF
KSJC 121123Z 1212/1312 12004KT P6SM SKC
     FM121900 31004KT P6SM SKC
     FM130300 24003KT P6SM SKC
     FM130700 VRB03KT P6SM SKC=

USA.gov is the U.S. government's official web portal to all federal, state and local government web resources and services.